Home   Weather   USA   Grand Prairie   Past weeks
Flag for USA

Past Weather in Grand Prairie, Texas, USA — Yesterday and Last 2 Weeks

Currently: 88 °F. Scattered clouds. (Weather station: Grand Prairie Municipal Airport, USA). See more current weather

Past Weather in Grand Prairie — Graph

°F

Grand Prairie Temperature Yesterday

Maximum temperature yesterday: 91 °F (at 3:50 pm)
Minimum temperature yesterday: 76 °F (at 6:35 am)
Average temperature yesterday: 83 °F

High & Low Weather Summary for the Past Weeks

 TemperatureHumidityPressure
High95 °F (Jun 8, 2:50 pm)83% (Jun 9, 6:50 am)30.20 "Hg (Jun 9, 6:50 am)
Low73 °F (Jun 11, 6:35 am)23% (Jun 7, 4:50 pm)29.76 "Hg (Jun 17, 5:50 pm)
Average82 °F63%29.96 "Hg
* Reported Jun 7 11:50 am — Jun 22 11:50 am, Grand Prairie. Weather by CustomWeather, © 2024

Note: Actual official high and low records may vary slightly from our data, if they occured in-between our weather recording intervals... More about our weather records

Grand Prairie Weather History for the Previous 24 Hours

Scroll right to see more
 ConditionsComfort  
Time TempWeatherWind HumidityBarometerVisibility
11:50 am
Sat, Jun 22
88 °FScattered clouds.6 mph52%30.09 "Hg10 mi
10:50 am86 °FScattered clouds.6 mph59%30.09 "Hg10 mi
9:50 am84 °FSunny.6 mph62%30.10 "Hg10 mi
8:50 am82 °FSunny.6 mph66%30.10 "Hg10 mi
7:50 am79 °FSunny.3 mph74%30.10 "Hg10 mi
6:50 am77 °FSunny.3 mph74%30.09 "Hg10 mi
6:35 am76 °FSunny.3 mph77%30.09 "Hg10 mi
6:15 am76 °FClear.3 mph76%30.09 "Hg10 mi
5:55 am76 °FClear.3 mph76%30.09 "Hg10 mi
5:35 am77 °FClear.No wind74%30.09 "Hg10 mi
5:15 am77 °FClear.3 mph73%30.08 "Hg10 mi
4:55 am77 °FClear.3 mph72%30.08 "Hg10 mi
4:35 am78 °FClear.5 mph71%30.08 "Hg10 mi
3:55 am78 °FClear.No wind69%30.08 "Hg10 mi
3:15 am79 °FClear.No wind68%30.09 "Hg10 mi
2:55 am79 °FClear.3 mph67%30.09 "Hg10 mi
2:15 am80 °FClear.3 mph65%30.09 "Hg10 mi
1:55 am80 °FClear.No wind64%30.09 "Hg10 mi
1:15 am81 °FClear.No wind63%30.10 "Hg10 mi
12:55 am81 °FClear.3 mph62%30.10 "Hg10 mi
12:35 am81 °FClear.No wind61%30.10 "Hg10 mi
12:15 am82 °FClear.3 mph60%30.10 "Hg10 mi
11:55 pm
Fri, Jun 21
82 °FClear.No wind59%30.10 "Hg10 mi
11:35 pm82 °FClear.3 mph60%30.09 "Hg10 mi
11:15 pm83 °FClear.3 mph59%30.09 "Hg10 mi
10:55 pm83 °FClear.3 mph58%30.09 "Hg10 mi
10:35 pm83 °FClear.5 mph56%30.08 "Hg10 mi
10:15 pm84 °FClear.3 mph55%30.08 "Hg10 mi
9:55 pm84 °FClear.5 mph52%30.07 "Hg10 mi
9:35 pm85 °FClear.5 mph49%30.07 "Hg10 mi
8:50 pm88 °FClear.7 mph46%30.07 "Hg10 mi
7:50 pm88 °FSunny.7 mph46%30.07 "Hg10 mi
6:50 pm91 °FSunny.8 mph41%30.07 "Hg10 mi
5:50 pm91 °FSunny.8 mph41%30.08 "Hg10 mi
4:50 pm91 °FSunny.9 mph41%30.09 "Hg10 mi
3:50 pm91 °FSunny.9 mph38%30.11 "Hg10 mi
2:50 pm90 °FScattered clouds.12 mph43%30.14 "Hg10 mi
Weather by CustomWeather, © 2024

See weather overview